Wheeling Ohio County Airport
KHLG : now visible

Airfield :











YOU CAN JOIN US ON...

 
LOGIN :

Register | Disclaimer

   EN    FR    IT 

 









Legend :    VFR   Marginal VFR   IFR   Intensive IFR   Very Intensive IFR
Visi :
Ceiling :
>= 8 km
>= 3000ft
5 to 8 km
1000 to 3000 ft
1500m to 5 km
500 to 1000 ft
800 to 1500m
200 to 500 ft
< 800m
< 200 ft
Symbols :   Thunderstorms  Fog  Heavy snow  Heavy precipitations  Wind > 20 kt






- Airport Elevation : 1195 ft


KHLG - Wheeling Ohio County

CURRENT METAR :
  • 190810Z AUTO 27010G21KT 10SM SCT041 SCT050 23/17 A2986 RMK AO2 T02330167

EXPIRED METARs :
  • 190753Z AUTO 29011G19KT 10SM VCTS BKN039 23/17 A2986 RMK AO2 LTG DSNT NW SLP103 T02330167
  • 190653Z AUTO 26012G19KT 10SM BKN043 BKN060 24/18 A2987 RMK AO2 SLP105 T02440178
  • 190553Z AUTO 25010KT 200V280 10SM BKN095 24/20 A2986 RMK AO2 SLP102 T02440200 10256 20244 55004

TAF KHLG
Valid from the 19 at 07:00 until the 20 at 06:00 UTC


190723Z 1907/2006 25010KT P6SM BKN250
TEMPO 1908/1909 -TSRA BKN040CB
FM191600 21010G18KT P6SM BKN050
FM200100 22006KT P6SM BKN250
KZOB FIR / North America



MET'MAP, your aeronautical weather chart ! - Copyright ORBIFLY December 2007 - Disclaimer

ORBIFLY MET'MAP TEAM :

Programming & Development : Alexandra Zaïnal
Concept & original design : Baudouin d'Aumeries
Assistance for programming : Marc-Olivier Méhu
Technical & hardware support : Manuel Goepfert

Contact : metmap@orbifly.com




SOURCES & CREDITS :

   NOAA       Earth
Advisory